createdAt,value
2023-07-01T00:01:03.643Z,100730.47
2023-07-01T00:03:36.325Z,100723.84
2023-07-01T00:06:03.490Z,100715.59
2023-07-01T00:08:34.042Z,100713.34
2023-07-01T00:11:04.417Z,100712.53
2023-07-01T00:13:32.149Z,100706.56
2023-07-01T00:16:00.980Z,100706.56
2023-07-01T00:18:27.613Z,100711.56
2023-07-01T00:20:55.381Z,100704.47
2023-07-01T00:23:21.904Z,100704.00
2023-07-01T00:26:07.812Z,100710.44
2023-07-01T00:28:34.302Z,100706.56
2023-07-01T00:31:00.829Z,100701.38
2023-07-01T00:33:27.333Z,100691.72
2023-07-01T00:35:53.829Z,100694.47
2023-07-01T00:38:20.262Z,100686.06
2023-07-01T00:40:46.915Z,100687.84
2023-07-01T00:43:20.760Z,100680.41
2023-07-01T00:45:47.236Z,100678.47
2023-07-01T00:48:37.936Z,100672.66
2023-07-01T00:51:04.593Z,100665.56
2023-07-01T00:53:31.406Z,100664.75
2023-07-01T00:55:57.882Z,100665.56
2023-07-01T00:58:33.864Z,100655.38
2023-07-01T01:01:13.401Z,100653.28
2023-07-01T01:03:49.064Z,100641.69
2023-07-01T01:06:37.580Z,100638.75
2023-07-01T01:09:17.022Z,100636.84
2023-07-01T01:11:47.446Z,100628.78
2023-07-01T01:14:42.021Z,100639.75
2023-07-01T01:17:14.092Z,100627.16
2023-07-01T01:19:43.107Z,100634.91
2023-07-01T01:22:15.666Z,100635.09
2023-07-01T01:25:25.468Z,100630.25
2023-07-01T01:27:57.886Z,100636.03
2023-07-01T01:30:24.750Z,100632.47
2023-07-01T01:32:53.348Z,100631.34
2023-07-01T01:35:19.972Z,100616.34
2023-07-01T01:38:07.904Z,100607.78
2023-07-01T01:40:46.264Z,100603.13
2023-07-01T01:43:19.592Z,100602.94
2023-07-01T01:45:48.683Z,100595.84
2023-07-01T01:48:15.274Z,100599.72
2023-07-01T01:50:45.009Z,100588.75
2023-07-01T01:53:22.683Z,100595.38
2023-07-01T01:55:49.726Z,100587.13
2023-07-01T01:58:16.652Z,100576.81
2023-07-01T02:00:47.438Z,100588.28
2023-07-01T02:03:14.844Z,100585.22
2023-07-01T02:05:42.538Z,100568.75
2023-07-01T02:08:09.376Z,100571.50
2023-07-01T02:10:35.996Z,100563.13
2023-07-01T02:13:03.898Z,100562.00
2023-07-01T02:15:33.495Z,100552.94
2023-07-01T02:18:11.504Z,100553.59
2023-07-01T02:20:38.333Z,100553.59
2023-07-01T02:23:21.333Z,100549.72
2023-07-01T02:25:55.218Z,100551.19
2023-07-01T02:28:22.744Z,100548.44
2023-07-01T02:30:49.429Z,100535.38
2023-07-01T02:33:21.508Z,100549.41
2023-07-01T02:36:00.161Z,100537.31
2023-07-01T02:38:26.687Z,100532.31
2023-07-01T02:41:06.404Z,100533.44
2023-07-01T02:43:32.875Z,100535.38
2023-07-01T02:45:59.615Z,100529.91
2023-07-01T02:48:36.710Z,100522.16
2023-07-01T02:51:04.378Z,100523.75
2023-07-01T02:53:30.936Z,100515.06
2023-07-01T02:56:10.851Z,100511.97
2023-07-01T02:58:49.725Z,100519.06
2023-07-01T03:01:16.155Z,100515.19
2023-07-01T03:03:43.788Z,100515.19
2023-07-01T03:06:13.765Z,100505.34
2023-07-01T03:08:40.299Z,100514.25
2023-07-01T03:11:06.849Z,100511.50
2023-07-01T03:13:34.626Z,100499.38
2023-07-01T03:16:02.113Z,100501.00
2023-07-01T03:18:39.074Z,100496.34
2023-07-01T03:21:05.622Z,100501.00
2023-07-01T03:23:38.285Z,100495.03
2023-07-01T03:26:04.798Z,100485.69
2023-07-01T03:28:31.352Z,100488.91
2023-07-01T03:30:58.476Z,100487.78
2023-07-01T03:33:25.484Z,100487.63
2023-07-01T03:35:52.301Z,100478.59
2023-07-01T03:38:18.928Z,100472.78
2023-07-01T03:40:45.667Z,100474.22
2023-07-01T03:43:47.581Z,100468.44
2023-07-01T03:46:15.081Z,100464.88
2023-07-01T03:48:52.877Z,100459.38
2023-07-01T03:51:23.499Z,100454.72
2023-07-01T03:54:03.292Z,100467.13
2023-07-01T03:56:29.821Z,100451.81
2023-07-01T03:59:03.568Z,100457.28
2023-07-01T04:01:42.922Z,100452.47
2023-07-01T04:04:09.579Z,100449.72
2023-07-01T04:06:36.155Z,100447.47
2023-07-01T04:09:02.846Z,100446.31
2023-07-01T04:11:29.746Z,100442.44
2023-07-01T04:13:56.347Z,100433.09
2023-07-01T04:16:26.936Z,100435.81
2023-07-01T04:19:37.043Z,100438.09
2023-07-01T04:22:10.738Z,100434.88
2023-07-01T04:24:37.231Z,100427.78
2023-07-01T04:27:16.107Z,100431.66
2023-07-01T04:29:42.624Z,100431.66
2023-07-01T04:32:09.120Z,100432.31
2023-07-01T04:34:36.649Z,100429.09
2023-07-01T04:37:03.338Z,100428.31
2023-07-01T04:39:30.494Z,100426.03
2023-07-01T04:42:42.819Z,100420.88
2023-07-01T04:45:10.291Z,100426.03
2023-07-01T04:47:36.980Z,100423.59
2023-07-01T04:50:03.594Z,100422.66
2023-07-01T04:52:40.334Z,100418.66
2023-07-01T04:55:07.527Z,100418.31
2023-07-01T04:57:33.970Z,100415.56
2023-07-01T05:00:00.480Z,100405.59
2023-07-01T05:02:27.033Z,100412.34
2023-07-01T05:04:57.555Z,100413.94
2023-07-01T05:07:24.006Z,100413.94
2023-07-01T05:10:03.805Z,100406.19
2023-07-01T05:12:34.513Z,100414.78
2023-07-01T05:15:01.148Z,100397.03
2023-07-01T05:17:41.963Z,100394.63
2023-07-01T05:20:09.636Z,100394.63
2023-07-01T05:22:39.150Z,100399.28
2023-07-01T05:25:06.859Z,100398.03
2023-07-01T05:27:41.579Z,100399.97
2023-07-01T05:30:08.695Z,100400.75
2023-07-01T05:33:05.482Z,100397.22
2023-07-01T05:35:43.221Z,100402.72
2023-07-01T05:38:11.351Z,100396.88
2023-07-01T05:40:50.151Z,100400.59
2023-07-01T05:43:17.164Z,100382.38
2023-07-01T05:45:43.720Z,100389.47
2023-07-01T05:48:10.187Z,100394.97
2023-07-01T05:50:56.999Z,100387.88
2023-07-01T05:53:23.528Z,100391.88
2023-07-01T05:55:50.008Z,100391.06
2023-07-01T05:58:19.613Z,100387.19
2023-07-01T06:00:46.783Z,100388.31
2023-07-01T06:03:15.094Z,100386.88
2023-07-01T06:05:43.598Z,100384.91
2023-07-01T06:08:10.083Z,100390.41
2023-07-01T06:10:38.626Z,100388.97
2023-07-01T06:13:08.217Z,100384.25
2023-07-01T06:15:42.927Z,100380.38
2023-07-01T06:18:19.892Z,100390.22
2023-07-01T06:20:46.586Z,100387.00
2023-07-01T06:23:13.277Z,100378.13
2023-07-01T06:25:47.042Z,100379.25
2023-07-01T06:28:13.525Z,100385.88
2023-07-01T06:30:40.442Z,100377.16
2023-07-01T06:33:08.365Z,100378.97
2023-07-01T06:35:35.060Z,100375.44
2023-07-01T06:38:01.989Z,100386.25
2023-07-01T06:40:28.432Z,100373.69
2023-07-01T06:42:54.976Z,100383.84
2023-07-01T06:45:21.420Z,100373.69
2023-07-01T06:47:48.096Z,100369.00
2023-07-01T06:50:14.729Z,100363.19
2023-07-01T06:52:41.195Z,100368.69
2023-07-01T06:55:08.864Z,100365.94
2023-07-01T06:57:35.371Z,100361.59
2023-07-01T07:00:02.041Z,100364.16
2023-07-01T07:02:28.607Z,100363.38
2023-07-01T07:04:55.118Z,100372.06
2023-07-01T07:07:21.705Z,100358.69
2023-07-01T07:09:53.368Z,100366.44
2023-07-01T07:12:23.135Z,100368.84
2023-07-01T07:14:53.170Z,100357.41
2023-07-01T07:17:26.961Z,100365.63
2023-07-01T07:19:53.593Z,100367.91
2023-07-01T07:22:20.575Z,100363.69
2023-07-01T07:24:47.037Z,100361.75
2023-07-01T07:27:14.598Z,100363.69
2023-07-01T07:29:41.079Z,100366.91
2023-07-01T07:32:09.073Z,100366.59
2023-07-01T07:34:38.668Z,100364.97
2023-07-01T07:37:06.410Z,100364.97
2023-07-01T07:39:34.985Z,100369.66
2023-07-01T07:42:03.720Z,100366.59
2023-07-01T07:44:30.170Z,100366.59
2023-07-01T07:47:04.165Z,100357.72
2023-07-01T07:49:30.673Z,100365.13
2023-07-01T07:51:57.715Z,100354.16
2023-07-01T07:54:27.351Z,100363.63
2023-07-01T07:57:00.157Z,100356.72
2023-07-01T07:59:30.135Z,100354.75
2023-07-01T08:01:59.298Z,100358.44
2023-07-01T08:04:36.667Z,100351.84
2023-07-01T08:07:03.502Z,100355.06
2023-07-01T08:09:30.219Z,100353.91
2023-07-01T08:12:09.715Z,100350.03
2023-07-01T08:14:36.159Z,100347.78
2023-07-01T08:17:09.822Z,100344.56
2023-07-01T08:19:36.299Z,100339.06
2023-07-01T08:22:03.431Z,100340.03
2023-07-01T08:24:30.021Z,100342.44
2023-07-01T08:26:57.025Z,100336.97
2023-07-01T08:29:23.451Z,100339.38
2023-07-01T08:32:07.877Z,100341.63
2023-07-01T08:34:37.279Z,100336.16
2023-07-01T08:37:03.885Z,100341.63
2023-07-01T08:39:30.360Z,100337.28
2023-07-01T08:42:00.363Z,100327.91
2023-07-01T08:44:27.065Z,100330.00
2023-07-01T08:46:53.910Z,100328.56
2023-07-01T08:49:23.083Z,100333.38
2023-07-01T08:51:54.511Z,100329.50
2023-07-01T08:54:21.511Z,100335.13
2023-07-01T08:56:49.322Z,100324.50
2023-07-01T08:59:16.319Z,100327.06
2023-07-01T09:01:46.806Z,100330.28
2023-07-01T09:04:13.501Z,100332.72
2023-07-01T09:06:40.006Z,100328.03
2023-07-01T09:09:06.831Z,100330.44
2023-07-01T09:11:33.307Z,100330.91
2023-07-01T09:13:59.793Z,100326.69
2023-07-01T09:16:34.855Z,100327.50
2023-07-01T09:19:12.072Z,100331.03
2023-07-01T09:21:39.406Z,100331.88
2023-07-01T09:24:07.492Z,100327.16
2023-07-01T09:26:34.427Z,100324.41
2023-07-01T09:29:09.832Z,100325.38
2023-07-01T09:31:48.213Z,100324.22
2023-07-01T09:34:16.232Z,100320.81
2023-07-01T09:36:42.668Z,100322.78
2023-07-01T09:39:09.194Z,100321.28
2023-07-01T09:41:35.974Z,100320.66
2023-07-01T09:44:15.739Z,100317.25
2023-07-01T09:46:44.371Z,100313.84
2023-07-01T09:49:11.391Z,100314.31
2023-07-01T09:51:51.802Z,100313.50
2023-07-01T09:54:29.308Z,100322.53
2023-07-01T09:56:59.604Z,100304.94
2023-07-01T09:59:27.249Z,100307.34
2023-07-01T10:01:56.832Z,100298.78
2023-07-01T10:04:29.195Z,100300.84
2023-07-01T10:06:56.189Z,100297.09
2023-07-01T10:09:28.218Z,100301.78
2023-07-01T10:11:57.634Z,100300.97
2023-07-01T10:14:25.580Z,100294.69
2023-07-01T10:16:52.914Z,100292.41
2023-07-01T10:19:33.451Z,100295.97
2023-07-01T10:22:18.783Z,100292.88
2023-07-01T10:24:45.335Z,100289.78
2023-07-01T10:27:13.784Z,100288.34
2023-07-01T10:29:41.260Z,100288.44
2023-07-01T10:32:11.772Z,100288.59
2023-07-01T10:34:53.421Z,100290.22
2023-07-01T10:37:25.678Z,100286.31
2023-07-01T10:39:53.821Z,100297.78
2023-07-01T10:42:34.592Z,100298.25
2023-07-01T10:45:13.386Z,100300.63
2023-07-01T10:47:45.481Z,100294.34
2023-07-01T10:50:13.557Z,100296.91
2023-07-01T10:52:58.569Z,100296.22
2023-07-01T10:55:51.537Z,100293.22
2023-07-01T10:58:24.452Z,100299.34
2023-07-01T11:00:55.673Z,100286.19
2023-07-01T11:03:34.689Z,100292.59
2023-07-01T11:06:12.803Z,100291.59
2023-07-01T11:08:51.364Z,100296.06
2023-07-01T11:11:29.633Z,100308.19
2023-07-01T11:14:03.977Z,100305.66
2023-07-01T11:16:31.433Z,100295.34
2023-07-01T11:19:01.332Z,100305.19
2023-07-01T11:21:32.005Z,100298.09
2023-07-01T11:24:05.068Z,100298.56
2023-07-01T11:26:36.068Z,100299.50
2023-07-01T11:29:03.754Z,100302.03
2023-07-01T11:31:35.248Z,100306.16
2023-07-01T11:34:03.109Z,100305.47
2023-07-01T11:36:45.428Z,100296.38
2023-07-01T11:39:16.876Z,100299.59
2023-07-01T11:41:54.824Z,100303.47
2023-07-01T11:44:26.706Z,100312.88
2023-07-01T11:46:54.109Z,100314.19
2023-07-01T11:49:27.503Z,100321.50
2023-07-01T11:51:59.054Z,100323.31
2023-07-01T11:54:41.763Z,100315.44
2023-07-01T11:57:15.382Z,100312.34
2023-07-01T11:59:44.972Z,100316.84
2023-07-01T12:02:11.847Z,100316.47
2023-07-01T12:04:38.455Z,100326.78
2023-07-01T12:07:16.768Z,100317.75
2023-07-01T12:09:46.053Z,100321.28
2023-07-01T12:12:16.471Z,100322.94
2023-07-01T12:14:43.512Z,100335.53
2023-07-01T12:17:29.783Z,100332.78
2023-07-01T12:19:57.782Z,100332.28
2023-07-01T12:22:24.226Z,100329.06
2023-07-01T12:24:59.685Z,100330.69
2023-07-01T12:27:28.349Z,100328.44
2023-07-01T12:29:54.971Z,100330.50
2023-07-01T12:32:21.471Z,100337.13
2023-07-01T12:34:47.996Z,100332.78
2023-07-01T12:37:14.552Z,100342.34
2023-07-01T12:39:42.719Z,100341.56
2023-07-01T12:42:09.966Z,100350.59
2023-07-01T12:44:36.481Z,100349.34
2023-07-01T12:47:03.020Z,100344.16
2023-07-01T12:49:29.489Z,100346.00
2023-07-01T12:51:55.926Z,100339.69
2023-07-01T12:54:23.149Z,100341.41
2023-07-01T12:56:49.647Z,100343.50
2023-07-01T12:59:16.356Z,100343.63
2023-07-01T13:01:46.944Z,100337.94
2023-07-01T13:04:17.034Z,100352.63
2023-07-01T13:06:44.009Z,100343.25
2023-07-01T13:09:13.522Z,100350.19
2023-07-01T13:11:41.997Z,100347.59
2023-07-01T13:14:11.032Z,100340.59
2023-07-01T13:16:39.611Z,100350.91
2023-07-01T13:19:09.492Z,100352.53
2023-07-01T13:21:45.536Z,100362.84
2023-07-01T13:24:14.497Z,100355.72
2023-07-01T13:26:43.354Z,100362.00
2023-07-01T13:29:15.984Z,100367.19
2023-07-01T13:31:44.627Z,100376.13
2023-07-01T13:34:11.659Z,100369.22
2023-07-01T13:36:41.733Z,100382.50
2023-07-01T13:39:14.635Z,100391.41
2023-07-01T13:41:41.189Z,100396.81
2023-07-01T13:44:21.971Z,100395.50
2023-07-01T13:46:50.945Z,100396.16
2023-07-01T13:49:23.089Z,100400.88
2023-07-01T13:51:50.398Z,100402.81
2023-07-01T13:54:23.628Z,100398.13
2023-07-01T13:56:51.848Z,100403.63
2023-07-01T13:59:19.817Z,100406.69
2023-07-01T14:02:06.332Z,100413.78
2023-07-01T14:04:37.320Z,100416.53
2023-07-01T14:07:06.108Z,100418.34
2023-07-01T14:09:37.094Z,100426.81
2023-07-01T14:12:04.188Z,100440.28
2023-07-01T14:14:32.471Z,100439.53
2023-07-01T14:17:00.349Z,100453.47
2023-07-01T14:19:30.030Z,100444.28
2023-07-01T14:22:00.555Z,100448.50
2023-07-01T14:24:29.056Z,100441.13
2023-07-01T14:26:58.038Z,100442.94
2023-07-01T14:29:25.324Z,100446.50
2023-07-01T14:31:53.864Z,100451.19
2023-07-01T14:34:26.517Z,100445.84
2023-07-01T14:36:55.650Z,100456.81
2023-07-01T14:39:39.176Z,100464.41
2023-07-01T14:42:05.951Z,100452.28
2023-07-01T14:44:32.382Z,100466.47
2023-07-01T14:46:59.005Z,100461.47
2023-07-01T14:49:25.552Z,100458.72
2023-07-01T14:51:52.102Z,100459.63
2023-07-01T14:54:18.534Z,100458.97
2023-07-01T14:56:47.204Z,100464.91
2023-07-01T14:59:15.841Z,100466.53
2023-07-01T15:01:42.332Z,100459.91
2023-07-01T15:04:08.952Z,100464.25
2023-07-01T15:06:36.491Z,100463.13
2023-07-01T15:09:03.005Z,100463.59
2023-07-01T15:11:32.601Z,100464.72
2023-07-01T15:13:59.037Z,100475.03
2023-07-01T15:16:26.697Z,100469.56
2023-07-01T15:18:53.432Z,100462.91
2023-07-01T15:21:19.869Z,100470.50
2023-07-01T15:23:46.804Z,100469.69
2023-07-01T15:26:13.216Z,100473.25
2023-07-01T15:28:39.631Z,100473.72
2023-07-01T15:31:07.327Z,100476.94
2023-07-01T15:33:39.268Z,100475.31
2023-07-01T15:36:05.697Z,100469.81
2023-07-01T15:38:32.124Z,100475.31
2023-07-01T15:40:58.675Z,100479.09
2023-07-01T15:43:25.108Z,100479.09
2023-07-01T15:45:53.011Z,100477.31
2023-07-01T15:48:21.813Z,100478.94
2023-07-01T15:50:48.338Z,100479.59
2023-07-01T15:53:14.850Z,100488.97
2023-07-01T15:55:41.563Z,100491.25
2023-07-01T15:58:08.130Z,100494.00
2023-07-01T16:00:34.572Z,100498.03
2023-07-01T16:03:01.045Z,100498.81
2023-07-01T16:05:27.831Z,100486.69
2023-07-01T16:08:02.608Z,100485.56
2023-07-01T16:10:30.566Z,100484.44
2023-07-01T16:13:00.189Z,100489.59
2023-07-01T16:15:31.467Z,100488.47
2023-07-01T16:18:06.018Z,100492.81
2023-07-01T16:20:32.478Z,100492.47
2023-07-01T16:23:03.215Z,100490.19
2023-07-01T16:25:29.639Z,100481.63
2023-07-01T16:27:56.859Z,100492.28
2023-07-01T16:30:24.315Z,100492.75
2023-07-01T16:32:59.783Z,100487.25
2023-07-01T16:35:38.505Z,100495.16
2023-07-01T16:38:19.939Z,100492.06
2023-07-01T16:40:47.901Z,100486.09
2023-07-01T16:43:15.873Z,100495.97
2023-07-01T16:45:43.607Z,100491.13
2023-07-01T16:48:44.391Z,100481.28
2023-07-01T16:51:11.323Z,100489.06
2023-07-01T16:53:40.205Z,100490.66
2023-07-01T16:56:12.378Z,100493.28
2023-07-01T16:58:43.562Z,100488.94
2023-07-01T17:01:13.167Z,100495.56
2023-07-01T17:03:41.379Z,100493.13
2023-07-01T17:06:37.755Z,100502.03
2023-07-01T17:09:25.444Z,100502.59
2023-07-01T17:11:55.793Z,100502.78
2023-07-01T17:14:44.121Z,100504.25
2023-07-01T17:17:29.055Z,100508.81
2023-07-01T17:19:56.681Z,100509.47
2023-07-01T17:22:24.296Z,100511.28
2023-07-01T17:24:50.941Z,100515.16
2023-07-01T17:27:17.416Z,100510.78
2023-07-01T17:29:43.838Z,100517.44
2023-07-01T17:32:10.493Z,100510.63
2023-07-01T17:34:49.922Z,100520.00
2023-07-01T17:37:16.373Z,100526.97
2023-07-01T17:39:42.820Z,100524.53
2023-07-01T17:42:09.257Z,100526.50
2023-07-01T17:44:50.608Z,100523.41
2023-07-01T17:47:18.637Z,100536.97
2023-07-01T17:49:45.690Z,100537.31
2023-07-01T17:52:12.608Z,100542.31
2023-07-01T17:54:39.061Z,100538.75
2023-07-01T17:57:06.416Z,100540.72
2023-07-01T17:59:33.069Z,100539.09
2023-07-01T18:01:59.660Z,100542.97
2023-07-01T18:04:29.260Z,100544.91
2023-07-01T18:06:55.967Z,100546.19
2023-07-01T18:09:24.427Z,100543.44
2023-07-01T18:11:51.094Z,100552.16
2023-07-01T18:14:21.757Z,100546.19
2023-07-01T18:16:51.419Z,100548.78
2023-07-01T18:19:19.725Z,100551.22
2023-07-01T18:21:46.500Z,100553.97
2023-07-01T18:24:13.984Z,100567.69
2023-07-01T18:26:45.374Z,100556.22
2023-07-01T18:29:12.202Z,100563.63
2023-07-01T18:31:40.292Z,100558.81
2023-07-01T18:34:07.158Z,100559.63
2023-07-01T18:36:33.703Z,100569.00
2023-07-01T18:39:00.244Z,100569.78
2023-07-01T18:41:26.916Z,100574.50
2023-07-01T18:43:53.368Z,100572.88
2023-07-01T18:46:22.010Z,100571.75
2023-07-01T18:48:48.755Z,100572.88
2023-07-01T18:51:16.059Z,100571.28
2023-07-01T18:53:42.579Z,100573.53
2023-07-01T18:56:09.115Z,100572.72
2023-07-01T18:58:35.524Z,100573.06
2023-07-01T19:01:01.983Z,100570.16
2023-07-01T19:03:28.595Z,100575.16
2023-07-01T19:05:55.097Z,100576.28
2023-07-01T19:08:21.556Z,100579.38
2023-07-01T19:10:48.016Z,100583.25
2023-07-01T19:13:16.442Z,100590.19
2023-07-01T19:15:44.414Z,100588.91
2023-07-01T19:18:10.885Z,100590.03
2023-07-01T19:20:50.867Z,100597.81
2023-07-01T19:23:19.587Z,100589.09
2023-07-01T19:25:47.206Z,100600.38
2023-07-01T19:28:17.435Z,100602.94
2023-07-01T19:30:44.503Z,100612.78
2023-07-01T19:33:19.379Z,100602.94
2023-07-01T19:35:51.011Z,100603.59
2023-07-01T19:38:18.649Z,100604.59
2023-07-01T19:40:45.206Z,100609.41
2023-07-01T19:43:11.740Z,100604.59
2023-07-01T19:45:38.389Z,100611.19
2023-07-01T19:48:05.492Z,100624.91
2023-07-01T19:50:31.999Z,100623.31
2023-07-01T19:52:58.612Z,100630.41
2023-07-01T19:55:25.186Z,100632.66
2023-07-01T19:57:52.099Z,100632.19
2023-07-01T20:00:18.660Z,100634.78
2023-07-01T20:02:45.151Z,100637.81
2023-07-01T20:05:11.761Z,100637.81
2023-07-01T20:07:38.495Z,100646.22
2023-07-01T20:10:12.894Z,100647.81
2023-07-01T20:12:46.990Z,100651.69
2023-07-01T20:15:13.661Z,100652.34
2023-07-01T20:17:40.423Z,100656.84
2023-07-01T20:20:08.233Z,100648.16
2023-07-01T20:22:34.682Z,100654.28
2023-07-01T20:25:01.307Z,100664.78
2023-07-01T20:27:28.163Z,100669.78
2023-07-01T20:29:55.060Z,100670.09
2023-07-01T20:32:22.203Z,100671.22
2023-07-01T20:34:49.506Z,100663.31
2023-07-01T20:37:17.163Z,100662.00
2023-07-01T20:39:43.675Z,100671.06
2023-07-01T20:42:10.553Z,100675.72
2023-07-01T20:44:37.998Z,100676.34
2023-07-01T20:47:06.611Z,100672.34
2023-07-01T20:49:34.208Z,100675.09
2023-07-01T20:52:03.455Z,100676.22
2023-07-01T20:54:30.384Z,100680.88
2023-07-01T20:56:56.820Z,100679.59
2023-07-01T20:59:23.349Z,100676.84
2023-07-01T21:01:49.814Z,100669.75
2023-07-01T21:04:16.360Z,100665.41
2023-07-01T21:06:42.907Z,100671.19
2023-07-01T21:09:17.228Z,100682.00
2023-07-01T21:11:45.460Z,100674.88
2023-07-01T21:14:12.909Z,100680.38
2023-07-01T21:16:41.642Z,100682.63
2023-07-01T21:19:08.290Z,100680.19
2023-07-01T21:21:35.162Z,100680.53
2023-07-01T21:24:02.466Z,100673.44
2023-07-01T21:26:31.765Z,100671.47
2023-07-01T21:29:00.662Z,100676.16
2023-07-01T21:31:31.649Z,100681.16
2023-07-01T21:33:58.721Z,100686.16
2023-07-01T21:36:25.471Z,100690.00
2023-07-01T21:38:52.284Z,100683.72
2023-07-01T21:41:18.829Z,100684.53
2023-07-01T21:43:45.281Z,100682.91
2023-07-01T21:46:12.292Z,100681.31
2023-07-01T21:48:39.554Z,100684.34
2023-07-01T21:51:09.631Z,100688.22
2023-07-01T21:53:51.370Z,100683.06
2023-07-01T21:56:20.489Z,100688.06
2023-07-01T21:58:52.036Z,100681.75
2023-07-01T22:01:35.678Z,100682.56
2023-07-01T22:04:06.705Z,100680.63
2023-07-01T22:06:38.116Z,100686.09
2023-07-01T22:09:05.032Z,100684.19
2023-07-01T22:11:31.548Z,100686.94
2023-07-01T22:13:58.303Z,100675.47
2023-07-01T22:16:25.981Z,100680.97
2023-07-01T22:19:01.818Z,100686.44
2023-07-01T22:21:31.121Z,100677.38
2023-07-01T22:24:00.954Z,100677.09
2023-07-01T22:26:38.612Z,100673.22
2023-07-01T22:29:15.943Z,100673.22
2023-07-01T22:31:42.477Z,100670.47
2023-07-01T22:34:08.930Z,100668.53
2023-07-01T22:36:35.350Z,100675.47
2023-07-01T22:39:01.871Z,100670.00
2023-07-01T22:41:51.240Z,100669.66
2023-07-01T22:44:27.891Z,100663.88
2023-07-01T22:46:54.549Z,100659.53
2023-07-01T22:49:20.990Z,100669.34
2023-07-01T22:51:47.547Z,100670.97
2023-07-01T22:54:13.994Z,100671.59
2023-07-01T22:56:48.546Z,100674.66
2023-07-01T22:59:15.939Z,100673.84
2023-07-01T23:01:42.415Z,100667.56
2023-07-01T23:04:12.234Z,100660.16
2023-07-01T23:06:48.195Z,100658.41
2023-07-01T23:09:14.639Z,100665.50
2023-07-01T23:11:41.135Z,100665.50
2023-07-01T23:14:10.587Z,100665.50
2023-07-01T23:16:37.106Z,100657.75
2023-07-01T23:19:04.568Z,100667.59
2023-07-01T23:21:39.231Z,100666.47
2023-07-01T23:24:13.098Z,100656.31
2023-07-01T23:26:41.580Z,100650.53
2023-07-01T23:29:32.564Z,100660.34
2023-07-01T23:31:59.047Z,100661.97
2023-07-01T23:34:32.992Z,100660.84
2023-07-01T23:37:13.397Z,100676.16
2023-07-01T23:39:44.995Z,100684.53
2023-07-01T23:42:15.574Z,100685.84
2023-07-01T23:44:42.135Z,100674.41
2023-07-01T23:47:08.596Z,100676.97
2023-07-01T23:49:39.386Z,100680.19
2023-07-01T23:52:31.795Z,100680.97
2023-07-01T23:55:02.275Z,100687.66
2023-07-01T23:57:28.776Z,100685.91
2023-07-01T23:59:56.033Z,100688.78
